Time;durP1;ratioP1;P1;durP2;ratioP2;P2;SDS_P1;SDS_P2;PMS_P1;PMS_P2;Temp;Humidity;BMP_temperature;BMP_pressure;BME280_temperature;BME280_humidity;BME280_pressure;Samples;Min_cycle;Max_cycle;Signal;HPM_P1;HPM_P2
2023/12/16 00:02:20;;;;;;;;;;;4.50;82.50;;;;;;4994869;28;92111;-44
2023/12/16 00:04:46;;;;;;;;;;;4.50;82.30;;;;;;4991362;28;91809;-44
2023/12/16 00:07:11;;;;;;;;;;;4.50;82.20;;;;;;4993859;28;93273;-46
2023/12/16 00:09:37;;;;;;;;;;;4.50;82.10;;;;;;4996744;28;92188;-44
2023/12/16 00:12:03;;;;;;;;;;;4.50;82.10;;;;;;4996061;28;94147;-45
2023/12/16 00:14:28;;;;;;;;;;;4.50;82.20;;;;;;4990820;28;91925;-44
2023/12/16 00:16:54;;;;;;;;;;;4.50;82.20;;;;;;4992353;28;92131;-45
2023/12/16 00:19:19;;;;;;;;;;;4.40;82.30;;;;;;4993594;28;92583;-45
2023/12/16 00:21:46;;;;;;;;;;;4.50;82.20;;;;;;4992715;28;92064;-45
2023/12/16 00:24:12;;;;;;;;;;;4.50;82.10;;;;;;4997421;28;93578;-44
2023/12/16 00:26:37;;;;;;;;;;;4.40;82.10;;;;;;4991160;28;92342;-45
2023/12/16 00:29:03;;;;;;;;;;;4.40;82.10;;;;;;5002077;28;91323;-45
2023/12/16 00:31:28;;;;;;;;;;;4.40;82.10;;;;;;4997813;28;92598;-45
2023/12/16 00:33:54;;;;;;;;;;;4.40;82.20;;;;;;5000213;28;91985;-45
2023/12/16 00:36:20;;;;;;;;;;;4.40;82.30;;;;;;4992148;28;92873;-44
2023/12/16 00:38:45;;;;;;;;;;;4.40;82.30;;;;;;4993530;28;93746;-45
2023/12/16 00:41:11;;;;;;;;;;;4.40;82.10;;;;;;4996685;28;92053;-44
2023/12/16 00:43:37;;;;;;;;;;;4.40;82.20;;;;;;4997845;28;92055;-45
2023/12/16 00:46:02;;;;;;;;;;;4.40;82.10;;;;;;4996178;28;93288;-46
2023/12/16 00:48:28;;;;;;;;;;;4.40;82.10;;;;;;4993725;28;91950;-45
2023/12/16 00:50:54;;;;;;;;;;;4.30;82.20;;;;;;4998589;28;92017;-45
2023/12/16 00:53:20;;;;;;;;;;;4.40;82.00;;;;;;4996447;28;91177;-46
2023/12/16 00:55:45;;;;;;;;;;;4.30;82.10;;;;;;4994613;28;92000;-45
2023/12/16 00:58:11;;;;;;;;;;;4.30;82.10;;;;;;4995311;28;93502;-46
2023/12/16 01:00:37;;;;;;;;;;;4.30;82.10;;;;;;4997034;28;93010;-45
2023/12/16 01:03:03;;;;;;;;;;;4.30;81.90;;;;;;4996865;28;93825;-45
2023/12/16 01:05:28;;;;;;;;;;;4.30;81.80;;;;;;4996396;28;93788;-46
2023/12/16 01:07:54;;;;;;;;;;;4.40;81.80;;;;;;4997128;28;92236;-45
2023/12/16 01:10:19;;;;;;;;;;;4.30;81.90;;;;;;4995538;28;92278;-45
2023/12/16 01:12:45;;;;;;;;;;;4.30;82.00;;;;;;4999359;28;92531;-46
2023/12/16 01:15:11;;;;;;;;;;;4.30;81.90;;;;;;4995196;28;92871;-46
2023/12/16 01:17:37;;;;;;;;;;;4.20;82.20;;;;;;4996960;28;92071;-46
2023/12/16 01:20:03;;;;;;;;;;;4.20;82.20;;;;;;5002517;28;92042;-45
2023/12/16 01:22:28;;;;;;;;;;;4.20;82.10;;;;;;4995509;28;92057;-45
2023/12/16 01:24:54;;;;;;;;;;;4.30;82.10;;;;;;4993537;28;93442;-46
2023/12/16 01:27:20;;;;;;;;;;;4.20;82.00;;;;;;4996725;28;92103;-46
2023/12/16 01:29:45;;;;;;;;;;;4.20;82.30;;;;;;4991720;28;92945;-47
2023/12/16 01:32:11;;;;;;;;;;;4.20;82.20;;;;;;4993630;28;92506;-48
2023/12/16 01:34:36;;;;;;;;;;;4.20;82.20;;;;;;4995450;28;92165;-45
2023/12/16 01:37:02;;;;;;;;;;;4.10;82.20;;;;;;4995583;28;92465;-45
2023/12/16 01:39:27;;;;;;;;;;;4.20;82.00;;;;;;4994410;28;92092;-44
2023/12/16 01:41:53;;;;;;;;;;;4.20;81.90;;;;;;4993691;28;92152;-46
2023/12/16 01:44:18;;;;;;;;;;;4.20;81.90;;;;;;4992429;28;92537;-45
2023/12/16 01:46:45;;;;;;;;;;;4.10;81.90;;;;;;4995742;28;92100;-46
2023/12/16 01:49:10;;;;;;;;;;;4.10;82.00;;;;;;4992016;28;93006;-45
2023/12/16 01:51:37;;;;;;;;;;;4.10;82.00;;;;;;4995458;28;92430;-46
2023/12/16 01:54:04;;;;;;;;;;;4.10;82.00;;;;;;4997382;28;92000;-46
2023/12/16 01:56:30;;;;;;;;;;;4.10;81.90;;;;;;4998684;28;92805;-45
2023/12/16 01:58:56;;;;;;;;;;;4.10;82.00;;;;;;4997084;28;91987;-45
2023/12/16 02:01:21;;;;;;;;;;;4.20;82.00;;;;;;4993808;28;93227;-46
2023/12/16 02:03:47;;;;;;;;;;;4.10;81.70;;;;;;4995066;28;92438;-45
2023/12/16 02:06:14;;;;;;;;;;;4.10;82.00;;;;;;4993739;28;91204;-47
2023/12/16 02:08:40;;;;;;;;;;;4.10;82.10;;;;;;4996110;28;92232;-46
2023/12/16 02:11:10;;;;;;;;;;;4.00;82.30;;;;;;4991489;28;93030;-45
2023/12/16 02:13:39;;;;;;;;;;;4.00;82.40;;;;;;4992403;28;93043;-46
2023/12/16 02:16:05;;;;;;;;;;;4.00;82.20;;;;;;4992200;28;92758;-46
2023/12/16 02:18:31;;;;;;;;;;;4.00;82.20;;;;;;4998526;28;92414;-48
2023/12/16 02:20:56;;;;;;;;;;;4.00;82.10;;;;;;4994523;28;92945;-46
2023/12/16 02:23:22;;;;;;;;;;;4.00;82.10;;;;;;4992974;28;92801;-47
2023/12/16 02:25:47;;;;;;;;;;;4.00;82.40;;;;;;4995231;28;92034;-46
2023/12/16 02:28:13;;;;;;;;;;;4.10;82.10;;;;;;4998741;28;92951;-46
2023/12/16 02:30:39;;;;;;;;;;;4.00;82.20;;;;;;4995004;28;91846;-46
2023/12/16 02:33:04;;;;;;;;;;;3.90;82.60;;;;;;4999542;28;92926;-45
2023/12/16 02:35:30;;;;;;;;;;;3.90;82.70;;;;;;4995055;28;92102;-45
2023/12/16 02:37:55;;;;;;;;;;;3.90;82.60;;;;;;4997134;28;94530;-46
2023/12/16 02:40:21;;;;;;;;;;;3.90;82.70;;;;;;4992729;28;92123;-46
2023/12/16 02:42:46;;;;;;;;;;;3.90;82.70;;;;;;4998362;28;92487;-47
2023/12/16 02:45:12;;;;;;;;;;;3.90;82.70;;;;;;4991732;28;92089;-46
2023/12/16 02:47:38;;;;;;;;;;;3.80;82.70;;;;;;4995632;28;92009;-47
2023/12/16 02:50:06;;;;;;;;;;;3.90;82.60;;;;;;4994443;28;93417;-46
2023/12/16 02:52:31;;;;;;;;;;;3.80;82.50;;;;;;4991383;28;92020;-46
2023/12/16 02:54:57;;;;;;;;;;;3.90;82.70;;;;;;4993974;28;91660;-46
2023/12/16 02:57:23;;;;;;;;;;;3.90;82.60;;;;;;4993437;28;92364;-46
2023/12/16 02:59:49;;;;;;;;;;;3.80;82.70;;;;;;4997887;28;92049;-46
2023/12/16 03:02:14;;;;;;;;;;;3.80;82.80;;;;;;4994341;28;93489;-46
2023/12/16 03:04:40;;;;;;;;;;;3.70;83.00;;;;;;4992755;28;92096;-46
2023/12/16 03:07:05;;;;;;;;;;;3.80;83.00;;;;;;4995273;28;91954;-45
2023/12/16 03:09:31;;;;;;;;;;;3.80;82.80;;;;;;4994584;28;92666;-46
2023/12/16 03:11:57;;;;;;;;;;;3.70;82.90;;;;;;4994417;28;92387;-45
2023/12/16 03:14:23;;;;;;;;;;;3.70;83.00;;;;;;4995425;28;91948;-46
2023/12/16 03:16:48;;;;;;;;;;;3.70;82.90;;;;;;4992313;28;92525;-46
2023/12/16 03:19:14;;;;;;;;;;;3.70;83.00;;;;;;4995789;28;91470;-47
2023/12/16 03:21:40;;;;;;;;;;;3.70;83.10;;;;;;4997825;28;92059;-47
2023/12/16 03:24:05;;;;;;;;;;;3.70;83.10;;;;;;4991593;28;92073;-47
2023/12/16 03:26:31;;;;;;;;;;;3.70;83.00;;;;;;4994855;28;93209;-47
2023/12/16 03:28:56;;;;;;;;;;;3.70;83.00;;;;;;4994903;28;93068;-45
2023/12/16 03:31:22;;;;;;;;;;;3.70;82.90;;;;;;4995288;28;92016;-48
2023/12/16 03:33:47;;;;;;;;;;;3.60;83.00;;;;;;4992073;28;92258;-46
2023/12/16 03:36:13;;;;;;;;;;;3.60;83.10;;;;;;4996160;28;94578;-46
2023/12/16 03:38:42;;;;;;;;;;;3.60;83.10;;;;;;4992298;28;92701;-46
2023/12/16 03:41:08;;;;;;;;;;;3.60;83.00;;;;;;4993325;28;92048;-46
2023/12/16 03:43:33;;;;;;;;;;;3.70;83.10;;;;;;4998406;28;91822;-46
2023/12/16 03:45:59;;;;;;;;;;;3.60;82.90;;;;;;4992450;28;92115;-45
2023/12/16 03:48:24;;;;;;;;;;;3.60;83.10;;;;;;4993298;28;92416;-46
2023/12/16 03:50:50;;;;;;;;;;;3.60;83.10;;;;;;4992164;28;93144;-46
2023/12/16 03:53:16;;;;;;;;;;;3.60;83.00;;;;;;4991076;28;93755;-47
2023/12/16 03:55:41;;;;;;;;;;;3.60;83.00;;;;;;4994917;28;93664;-46
2023/12/16 03:58:07;;;;;;;;;;;3.60;83.00;;;;;;4997896;28;92037;-46
2023/12/16 04:00:32;;;;;;;;;;;3.60;83.10;;;;;;4995506;28;92071;-46
2023/12/16 04:02:58;;;;;;;;;;;3.60;82.80;;;;;;4993308;28;92495;-46
2023/12/16 04:05:23;;;;;;;;;;;3.60;83.70;;;;;;4997577;28;92071;-47
2023/12/16 04:07:49;;;;;;;;;;;3.50;83.10;;;;;;4994335;28;92004;-47
2023/12/16 04:10:14;;;;;;;;;;;3.50;83.00;;;;;;5001347;28;92197;-47
2023/12/16 04:12:40;;;;;;;;;;;3.60;83.20;;;;;;4997682;28;92022;-46
2023/12/16 04:15:06;;;;;;;;;;;3.60;83.10;;;;;;4997134;28;93471;-47
2023/12/16 04:17:31;;;;;;;;;;;3.50;83.00;;;;;;4998646;28;92375;-47
2023/12/16 04:19:57;;;;;;;;;;;3.50;83.10;;;;;;4998534;28;92865;-47
2023/12/16 04:22:23;;;;;;;;;;;3.50;83.20;;;;;;4999757;28;92384;-47
2023/12/16 04:24:50;;;;;;;;;;;3.50;83.20;;;;;;4997661;28;92355;-46
2023/12/16 04:27:16;;;;;;;;;;;3.50;83.20;;;;;;5002090;28;92511;-49
2023/12/16 04:29:41;;;;;;;;;;;3.50;83.20;;;;;;4996139;28;92991;-47
2023/12/16 04:32:07;;;;;;;;;;;3.50;83.20;;;;;;4998425;28;91958;-47
2023/12/16 04:34:32;;;;;;;;;;;3.50;83.30;;;;;;4990296;28;92510;-45
2023/12/16 04:36:58;;;;;;;;;;;3.50;83.40;;;;;;4997147;28;92012;-47
2023/12/16 04:39:23;;;;;;;;;;;3.40;83.30;;;;;;4997011;28;92743;-46
2023/12/16 04:41:49;;;;;;;;;;;3.50;83.30;;;;;;4997031;28;92682;-46
2023/12/16 04:44:15;;;;;;;;;;;3.50;83.30;;;;;;4995511;28;92124;-47
2023/12/16 04:46:40;;;;;;;;;;;3.40;83.20;;;;;;4999963;28;92797;-47
2023/12/16 04:49:06;;;;;;;;;;;3.40;83.40;;;;;;4994061;28;92928;-46
2023/12/16 04:51:31;;;;;;;;;;;3.40;83.20;;;;;;4996708;28;92988;-47
2023/12/16 04:53:57;;;;;;;;;;;3.40;83.20;;;;;;4994607;28;92515;-47
2023/12/16 04:56:23;;;;;;;;;;;3.40;83.30;;;;;;4991798;28;91311;-46
2023/12/16 04:58:49;;;;;;;;;;;3.40;83.30;;;;;;4997330;28;92019;-46
2023/12/16 05:01:14;;;;;;;;;;;3.40;83.30;;;;;;4996406;28;92442;-47
2023/12/16 05:03:41;;;;;;;;;;;3.40;83.30;;;;;;4997312;28;92951;-47
2023/12/16 05:06:07;;;;;;;;;;;3.40;83.20;;;;;;4994594;28;94060;-47
2023/12/16 05:08:32;;;;;;;;;;;3.40;83.30;;;;;;4999130;28;93181;-46
2023/12/16 05:10:58;;;;;;;;;;;3.40;83.30;;;;;;4993990;28;92831;-48
2023/12/16 05:13:23;;;;;;;;;;;3.40;83.10;;;;;;4996277;28;92495;-46
2023/12/16 05:15:51;;;;;;;;;;;3.40;83.30;;;;;;4994890;28;92254;-46
2023/12/16 05:18:17;;;;;;;;;;;3.30;83.20;;;;;;4993434;28;92880;-47
2023/12/16 05:20:43;;;;;;;;;;;3.30;83.10;;;;;;4996531;28;91789;-46
2023/12/16 05:23:08;;;;;;;;;;;3.30;83.20;;;;;;4997878;28;92075;-47
2023/12/16 05:25:35;;;;;;;;;;;3.30;83.20;;;;;;4995785;28;92921;-47
2023/12/16 05:28:01;;;;;;;;;;;3.30;83.20;;;;;;4998546;28;94492;-47
2023/12/16 05:30:27;;;;;;;;;;;3.30;83.20;;;;;;4995147;28;92181;-46
2023/12/16 05:32:53;;;;;;;;;;;3.30;83.20;;;;;;4995368;28;93145;-46
2023/12/16 05:35:19;;;;;;;;;;;3.30;83.20;;;;;;4996380;28;92298;-47
2023/12/16 05:37:45;;;;;;;;;;;3.30;83.20;;;;;;4996643;28;93119;-47
2023/12/16 05:40:11;;;;;;;;;;;3.30;83.20;;;;;;4998612;28;92573;-46
2023/12/16 05:42:36;;;;;;;;;;;3.30;83.20;;;;;;4993076;28;92117;-47
2023/12/16 05:45:02;;;;;;;;;;;3.20;83.20;;;;;;4997374;28;92130;-46
2023/12/16 05:47:28;;;;;;;;;;;3.20;83.20;;;;;;4995874;28;93522;-47
2023/12/16 05:49:53;;;;;;;;;;;3.20;83.20;;;;;;4994122;28;93357;-46
2023/12/16 05:52:19;;;;;;;;;;;3.20;83.00;;;;;;4997909;28;92975;-47
2023/12/16 05:54:44;;;;;;;;;;;3.20;83.10;;;;;;4994244;28;92414;-47
2023/12/16 05:57:10;;;;;;;;;;;3.20;83.10;;;;;;4994614;28;92116;-47
2023/12/16 05:59:35;;;;;;;;;;;3.20;83.30;;;;;;5000036;28;92519;-46
2023/12/16 06:02:01;;;;;;;;;;;3.20;83.30;;;;;;4999037;28;92110;-46
2023/12/16 06:04:27;;;;;;;;;;;3.20;83.30;;;;;;4997192;28;92050;-47
2023/12/16 06:06:53;;;;;;;;;;;3.20;83.30;;;;;;4998399;28;93693;-47
2023/12/16 06:09:18;;;;;;;;;;;3.20;83.20;;;;;;4993967;28;91287;-46
2023/12/16 06:11:44;;;;;;;;;;;3.10;83.30;;;;;;5000688;28;91812;-46
2023/12/16 06:14:09;;;;;;;;;;;3.20;83.30;;;;;;4998299;28;92493;-47
2023/12/16 06:16:35;;;;;;;;;;;3.20;83.30;;;;;;4988427;28;92896;-48
2023/12/16 06:19:03;;;;;;;;;;;3.20;83.30;;;;;;4995099;28;92428;-47
2023/12/16 06:21:31;;;;;;;;;;;3.10;83.30;;;;;;4992534;28;92016;-46
2023/12/16 06:24:00;;;;;;;;;;;3.10;83.40;;;;;;4990860;28;92498;-48
2023/12/16 06:26:25;;;;;;;;;;;3.10;83.30;;;;;;4991023;28;93619;-47
2023/12/16 06:28:51;;;;;;;;;;;3.20;83.50;;;;;;4999366;28;92124;-47
2023/12/16 06:31:17;;;;;;;;;;;3.10;83.30;;;;;;4993142;28;92813;-46
2023/12/16 06:33:42;;;;;;;;;;;3.10;83.10;;;;;;4995449;28;91781;-47
2023/12/16 06:36:08;;;;;;;;;;;3.10;83.10;;;;;;4994409;28;91974;-45
2023/12/16 06:38:34;;;;;;;;;;;3.10;83.30;;;;;;4995789;28;92473;-47
2023/12/16 06:40:59;;;;;;;;;;;3.10;83.30;;;;;;4991332;28;93104;-46
2023/12/16 06:43:25;;;;;;;;;;;3.10;83.30;;;;;;4995458;28;93878;-46
2023/12/16 06:45:50;;;;;;;;;;;3.10;83.20;;;;;;4995357;28;92598;-46
2023/12/16 06:48:16;;;;;;;;;;;3.10;83.30;;;;;;4999054;28;92136;-50
2023/12/16 06:50:41;;;;;;;;;;;3.10;83.30;;;;;;4993545;28;92035;-47
2023/12/16 06:53:07;;;;;;;;;;;3.10;83.40;;;;;;4991281;28;92429;-48
2023/12/16 06:55:32;;;;;;;;;;;3.10;83.50;;;;;;4994843;28;92123;-49
2023/12/16 06:57:58;;;;;;;;;;;3.10;83.40;;;;;;4995892;28;91944;-47
2023/12/16 07:00:24;;;;;;;;;;;3.10;83.30;;;;;;4993388;28;92032;-47
2023/12/16 07:02:49;;;;;;;;;;;3.10;83.40;;;;;;4991565;28;92915;-47
2023/12/16 07:05:15;;;;;;;;;;;3.00;83.40;;;;;;4990620;28;93638;-46
2023/12/16 07:07:40;;;;;;;;;;;3.00;83.40;;;;;;4995528;28;92049;-46
2023/12/16 07:10:06;;;;;;;;;;;3.00;83.40;;;;;;4989035;28;92827;-47
2023/12/16 07:12:32;;;;;;;;;;;3.00;83.50;;;;;;4992710;28;92439;-49
2023/12/16 07:14:57;;;;;;;;;;;3.10;83.20;;;;;;4995499;28;92163;-46
2023/12/16 07:17:23;;;;;;;;;;;3.00;83.30;;;;;;4999273;28;91947;-46
2023/12/16 07:19:49;;;;;;;;;;;3.00;83.30;;;;;;4995104;28;93908;-47
2023/12/16 07:22:16;;;;;;;;;;;3.00;83.30;;;;;;4991642;28;92066;-46
2023/12/16 07:24:42;;;;;;;;;;;3.00;83.30;;;;;;4995032;28;93598;-46
2023/12/16 07:27:08;;;;;;;;;;;3.00;83.30;;;;;;5000056;28;92173;-47
2023/12/16 07:29:34;;;;;;;;;;;3.00;83.30;;;;;;4991150;28;93581;-46
2023/12/16 07:31:59;;;;;;;;;;;3.00;83.40;;;;;;4991316;28;93686;-47
2023/12/16 07:34:25;;;;;;;;;;;3.00;83.30;;;;;;4987964;28;92046;-46
2023/12/16 07:36:51;;;;;;;;;;;3.00;83.20;;;;;;4995276;28;92365;-47
2023/12/16 07:39:16;;;;;;;;;;;3.00;83.30;;;;;;4989959;28;92493;-47
2023/12/16 07:41:42;;;;;;;;;;;3.00;83.20;;;;;;4991198;28;92858;-47
2023/12/16 07:44:07;;;;;;;;;;;3.00;83.20;;;;;;4997615;28;93489;-47
2023/12/16 07:46:33;;;;;;;;;;;3.00;83.30;;;;;;4994330;28;91387;-47
2023/12/16 07:48:58;;;;;;;;;;;3.00;83.20;;;;;;4994306;28;92061;-48
2023/12/16 07:51:25;;;;;;;;;;;2.90;83.10;;;;;;4993922;28;92445;-47
2023/12/16 07:53:52;;;;;;;;;;;2.90;83.30;;;;;;4993802;28;93067;-46
2023/12/16 07:56:22;;;;;;;;;;;3.00;83.20;;;;;;4990981;28;92853;-47
2023/12/16 07:58:48;;;;;;;;;;;2.90;83.20;;;;;;4989501;28;93539;-48
2023/12/16 08:01:14;;;;;;;;;;;3.00;83.20;;;;;;4994395;28;92048;-47
2023/12/16 08:03:40;;;;;;;;;;;3.00;83.30;;;;;;4987492;28;92516;-48
2023/12/16 08:06:05;;;;;;;;;;;3.00;83.00;;;;;;4994657;28;93747;-47
2023/12/16 08:08:31;;;;;;;;;;;3.00;83.20;;;;;;4994398;28;92517;-47
2023/12/16 08:10:56;;;;;;;;;;;3.00;83.60;;;;;;4990893;28;92932;-48
2023/12/16 08:13:22;;;;;;;;;;;3.00;83.20;;;;;;4992115;28;92547;-47
2023/12/16 08:15:47;;;;;;;;;;;3.00;83.10;;;;;;4996221;28;93658;-47
2023/12/16 08:18:13;;;;;;;;;;;3.00;83.30;;;;;;4992852;28;93533;-47
2023/12/16 08:20:39;;;;;;;;;;;2.90;83.10;;;;;;4988549;28;92168;-47
2023/12/16 08:23:08;;;;;;;;;;;2.90;83.20;;;;;;4992050;28;93856;-46
2023/12/16 08:25:35;;;;;;;;;;;2.90;83.20;;;;;;4992019;28;92156;-47
2023/12/16 08:28:01;;;;;;;;;;;2.90;83.10;;;;;;4990704;28;92020;-48
2023/12/16 08:30:26;;;;;;;;;;;2.90;83.30;;;;;;4991345;28;93507;-48
2023/12/16 08:32:52;;;;;;;;;;;2.90;83.30;;;;;;4991161;28;92031;-47
2023/12/16 08:35:18;;;;;;;;;;;2.90;83.30;;;;;;4991263;28;91844;-46
2023/12/16 08:37:44;;;;;;;;;;;2.90;83.80;;;;;;4989393;28;92615;-47
2023/12/16 08:40:10;;;;;;;;;;;2.90;83.30;;;;;;4995252;28;92122;-47
2023/12/16 08:42:36;;;;;;;;;;;2.90;83.20;;;;;;4989974;28;93624;-46
2023/12/16 08:45:02;;;;;;;;;;;2.90;83.30;;;;;;4985020;28;92146;-47
2023/12/16 08:47:27;;;;;;;;;;;2.90;83.30;;;;;;4993507;28;92489;-46
2023/12/16 08:49:53;;;;;;;;;;;2.90;83.20;;;;;;4987532;28;93462;-47
2023/12/16 08:52:18;;;;;;;;;;;2.90;83.20;;;;;;4995820;28;92354;-46
2023/12/16 08:54:44;;;;;;;;;;;2.80;83.20;;;;;;4993181;28;92346;-48
2023/12/16 08:57:10;;;;;;;;;;;2.80;83.30;;;;;;4995020;28;92487;-46
2023/12/16 08:59:35;;;;;;;;;;;2.90;83.20;;;;;;5001912;28;91325;-46
2023/12/16 09:02:02;;;;;;;;;;;2.80;83.20;;;;;;4994960;28;94100;-46
2023/12/16 09:04:27;;;;;;;;;;;2.80;83.10;;;;;;4996569;28;93638;-46
2023/12/16 09:06:54;;;;;;;;;;;2.80;83.30;;;;;;4993778;28;92818;-47
2023/12/16 09:09:19;;;;;;;;;;;2.80;83.30;;;;;;4997856;28;92448;-47
2023/12/16 09:11:45;;;;;;;;;;;2.80;83.20;;;;;;4994591;28;93182;-46
2023/12/16 09:14:10;;;;;;;;;;;2.90;83.20;;;;;;4996806;28;92718;-47
2023/12/16 09:16:36;;;;;;;;;;;2.80;83.10;;;;;;4993270;28;92499;-46
2023/12/16 09:19:03;;;;;;;;;;;2.80;83.20;;;;;;4998070;28;92648;-46
2023/12/16 09:21:29;;;;;;;;;;;2.80;83.20;;;;;;4989912;28;92849;-46
2023/12/16 09:23:54;;;;;;;;;;;2.80;83.20;;;;;;4993586;28;91672;-47
2023/12/16 09:26:21;;;;;;;;;;;2.80;83.00;;;;;;5000579;28;91998;-47
2023/12/16 09:28:47;;;;;;;;;;;2.80;83.10;;;;;;4992904;28;93491;-47
2023/12/16 09:31:13;;;;;;;;;;;2.80;83.20;;;;;;4993578;28;93619;-47
2023/12/16 09:33:38;;;;;;;;;;;2.80;83.10;;;;;;4993398;28;92589;-48
2023/12/16 09:36:04;;;;;;;;;;;2.80;83.20;;;;;;4994823;28;92737;-47
2023/12/16 09:38:30;;;;;;;;;;;2.80;83.10;;;;;;4993721;28;92001;-47
2023/12/16 09:40:55;;;;;;;;;;;2.80;83.10;;;;;;4991565;28;92779;-47
2023/12/16 09:43:22;;;;;;;;;;;2.80;83.10;;;;;;4992601;28;92507;-46
2023/12/16 09:45:47;;;;;;;;;;;2.80;83.20;;;;;;4997900;28;92213;-47
2023/12/16 09:48:17;;;;;;;;;;;2.80;83.10;;;;;;4995729;28;92229;-47
2023/12/16 09:50:42;;;;;;;;;;;2.80;83.20;;;;;;4994119;28;92311;-47
2023/12/16 09:53:09;;;;;;;;;;;2.80;83.10;;;;;;4994757;28;92010;-47
2023/12/16 09:55:34;;;;;;;;;;;2.80;83.20;;;;;;4997707;28;94693;-46
2023/12/16 09:58:00;;;;;;;;;;;2.80;83.20;;;;;;4994166;28;92107;-49
2023/12/16 10:00:29;;;;;;;;;;;2.80;83.30;;;;;;4991277;28;92805;-47
2023/12/16 10:02:56;;;;;;;;;;;2.80;83.20;;;;;;4996415;28;93375;-48
2023/12/16 10:05:26;;;;;;;;;;;2.80;83.20;;;;;;4995617;28;92142;-46
2023/12/16 10:07:59;;;;;;;;;;;2.80;83.30;;;;;;4998427;28;92965;-47
2023/12/16 10:10:24;;;;;;;;;;;2.80;83.10;;;;;;4996969;28;92488;-49
2023/12/16 10:12:50;;;;;;;;;;;2.80;83.20;;;;;;4997869;28;92980;-47
2023/12/16 10:15:37;;;;;;;;;;;2.70;83.20;;;;;;4997386;28;92502;-47
2023/12/16 10:18:03;;;;;;;;;;;2.80;83.20;;;;;;4997395;28;92065;-46
2023/12/16 10:20:29;;;;;;;;;;;2.70;83.40;;;;;;4991554;28;93681;-49
2023/12/16 10:22:55;;;;;;;;;;;2.80;83.30;;;;;;4997132;28;92503;-46
2023/12/16 10:25:21;;;;;;;;;;;2.70;83.20;;;;;;5000353;28;92666;-47
2023/12/16 10:27:47;;;;;;;;;;;2.70;83.20;;;;;;4993343;28;91971;-47
2023/12/16 10:30:12;;;;;;;;;;;2.70;83.20;;;;;;5001051;28;92543;-47
2023/12/16 10:32:39;;;;;;;;;;;2.70;83.20;;;;;;4998780;28;92516;-47
2023/12/16 10:35:23;;;;;;;;;;;2.70;83.20;;;;;;4990686;28;92261;-46
2023/12/16 10:37:50;;;;;;;;;;;2.70;83.20;;;;;;4994894;28;91355;-48
2023/12/16 10:40:16;;;;;;;;;;;2.70;83.20;;;;;;4996769;28;93626;-47
2023/12/16 10:42:42;;;;;;;;;;;2.70;83.30;;;;;;4994537;28;93528;-49
2023/12/16 10:45:09;;;;;;;;;;;2.80;83.40;;;;;;4994255;28;93293;-47
2023/12/16 10:47:36;;;;;;;;;;;2.80;83.20;;;;;;4994394;28;92731;-48
2023/12/16 10:50:02;;;;;;;;;;;2.70;83.20;;;;;;4991017;28;92574;-47
2023/12/16 10:52:33;;;;;;;;;;;2.70;83.20;;;;;;4993958;28;92342;-48
2023/12/16 10:55:02;;;;;;;;;;;2.70;83.30;;;;;;4993618;28;92543;-47
2023/12/16 10:57:34;;;;;;;;;;;2.70;83.30;;;;;;4992871;28;92156;-47
2023/12/16 11:00:07;;;;;;;;;;;2.70;83.30;;;;;;4990374;28;94516;-46
2023/12/16 11:02:51;;;;;;;;;;;2.70;83.30;;;;;;4991798;28;93017;-47
2023/12/16 11:05:21;;;;;;;;;;;2.70;83.30;;;;;;4997517;28;94008;-46
2023/12/16 11:07:48;;;;;;;;;;;2.70;83.30;;;;;;4991281;28;93099;-47
2023/12/16 11:10:14;;;;;;;;;;;2.70;83.30;;;;;;4991261;28;94502;-48
2023/12/16 11:12:40;;;;;;;;;;;2.70;83.40;;;;;;4992868;28;92105;-46
2023/12/16 11:15:07;;;;;;;;;;;2.70;83.30;;;;;;4997959;28;92790;-47
2023/12/16 11:17:40;;;;;;;;;;;2.70;83.40;;;;;;4993962;28;92090;-46
2023/12/16 11:20:09;;;;;;;;;;;2.70;83.50;;;;;;4996767;28;93257;-46
2023/12/16 11:22:46;;;;;;;;;;;2.70;83.50;;;;;;5000825;28;93712;-46
2023/12/16 11:25:21;;;;;;;;;;;2.70;83.50;;;;;;4991681;28;92702;-47
2023/12/16 11:27:47;;;;;;;;;;;2.70;83.50;;;;;;4996995;28;92414;-47
2023/12/16 11:30:13;;;;;;;;;;;2.70;83.40;;;;;;4989760;28;92504;-50
2023/12/16 11:32:39;;;;;;;;;;;2.70;83.50;;;;;;4995072;28;92066;-46
2023/12/16 11:35:05;;;;;;;;;;;2.70;83.40;;;;;;4994850;28;93971;-48
2023/12/16 11:37:36;;;;;;;;;;;2.70;83.50;;;;;;4993973;28;92490;-47
2023/12/16 11:40:03;;;;;;;;;;;2.70;83.50;;;;;;4994378;28;93012;-46
2023/12/16 11:42:47;;;;;;;;;;;2.70;83.50;;;;;;4992603;28;93470;-47
2023/12/16 11:45:31;;;;;;;;;;;2.70;83.50;;;;;;4987885;28;92231;-46
2023/12/16 11:47:57;;;;;;;;;;;2.70;83.60;;;;;;4994853;28;92322;-46
2023/12/16 11:50:22;;;;;;;;;;;2.70;83.60;;;;;;4993284;28;92477;-47
2023/12/16 11:52:48;;;;;;;;;;;2.70;83.70;;;;;;4994155;28;91338;-47
2023/12/16 11:55:14;;;;;;;;;;;2.70;83.60;;;;;;4992697;28;92014;-47
2023/12/16 11:57:42;;;;;;;;;;;2.60;83.50;;;;;;4994558;28;92506;-48
2023/12/16 12:00:08;;;;;;;;;;;2.60;83.60;;;;;;4992466;28;93005;-46
2023/12/16 12:02:33;;;;;;;;;;;2.60;84.30;;;;;;4994787;28;92510;-47
2023/12/16 12:05:00;;;;;;;;;;;2.60;83.80;;;;;;4995850;28;92259;-45
2023/12/16 12:07:25;;;;;;;;;;;2.60;83.80;;;;;;4996167;28;93595;-46
2023/12/16 12:09:51;;;;;;;;;;;2.60;83.80;;;;;;4988951;28;93523;-46
2023/12/16 12:12:16;;;;;;;;;;;2.60;83.80;;;;;;4991919;28;92130;-46
2023/12/16 12:14:46;;;;;;;;;;;2.60;83.80;;;;;;4990384;28;92771;-45
2023/12/16 12:17:11;;;;;;;;;;;2.60;83.90;;;;;;4987457;28;93052;-46
2023/12/16 12:19:37;;;;;;;;;;;2.60;83.90;;;;;;4991159;28;92083;-46
2023/12/16 12:22:03;;;;;;;;;;;2.60;83.90;;;;;;5000878;28;94469;-45
2023/12/16 12:24:28;;;;;;;;;;;2.60;84.00;;;;;;4990568;28;93075;-45
2023/12/16 12:26:54;;;;;;;;;;;2.60;83.90;;;;;;4994975;28;92704;-46
2023/12/16 12:29:19;;;;;;;;;;;2.60;83.90;;;;;;4993655;28;92623;-46
2023/12/16 12:31:45;;;;;;;;;;;2.60;84.00;;;;;;4997091;28;92116;-47
2023/12/16 12:34:18;;;;;;;;;;;2.60;83.90;;;;;;4996938;28;92859;-46
2023/12/16 12:36:43;;;;;;;;;;;2.50;84.10;;;;;;4993268;28;93822;-46
2023/12/16 12:39:18;;;;;;;;;;;2.50;84.10;;;;;;4997448;28;92047;-46
2023/12/16 12:41:44;;;;;;;;;;;2.50;84.20;;;;;;4997535;28;91290;-46
2023/12/16 12:44:10;;;;;;;;;;;2.50;84.10;;;;;;4993594;28;92742;-46
2023/12/16 12:46:44;;;;;;;;;;;2.50;84.00;;;;;;4995757;28;92043;-46
2023/12/16 12:49:09;;;;;;;;;;;2.50;84.20;;;;;;4993656;28;93547;-46
2023/12/16 12:51:35;;;;;;;;;;;2.50;84.20;;;;;;4993954;28;92182;-46
2023/12/16 12:54:00;;;;;;;;;;;2.50;84.30;;;;;;4996721;28;92033;-47
2023/12/16 12:56:26;;;;;;;;;;;2.50;84.30;;;;;;4995459;28;93640;-47
2023/12/16 12:58:51;;;;;;;;;;;2.50;84.30;;;;;;4999671;28;92549;-45
2023/12/16 13:01:17;;;;;;;;;;;2.50;84.40;;;;;;4995498;28;92833;-46
2023/12/16 13:03:43;;;;;;;;;;;2.50;84.20;;;;;;5001830;28;93522;-46
2023/12/16 13:06:08;;;;;;;;;;;2.50;84.40;;;;;;4994291;28;91984;-46
2023/12/16 13:08:34;;;;;;;;;;;2.50;84.40;;;;;;4996577;28;92707;-45
2023/12/16 13:11:00;;;;;;;;;;;2.50;84.40;;;;;;4995899;28;92148;-47
2023/12/16 13:13:25;;;;;;;;;;;2.50;84.50;;;;;;4997914;28;92975;-47
2023/12/16 13:15:51;;;;;;;;;;;2.50;84.40;;;;;;4996490;28;93501;-46
2023/12/16 13:18:17;;;;;;;;;;;2.50;84.60;;;;;;4994536;28;92023;-46
2023/12/16 13:20:43;;;;;;;;;;;2.50;84.40;;;;;;4995020;28;92886;-47
2023/12/16 13:23:09;;;;;;;;;;;2.50;84.50;;;;;;4996788;28;93624;-47
2023/12/16 13:25:35;;;;;;;;;;;2.50;84.50;;;;;;4999006;28;92106;-46
2023/12/16 13:28:02;;;;;;;;;;;2.50;84.50;;;;;;4995762;28;92619;-48
2023/12/16 13:30:27;;;;;;;;;;;2.40;84.70;;;;;;4994774;28;92586;-47
2023/12/16 13:32:53;;;;;;;;;;;2.40;84.60;;;;;;4991768;28;92372;-46
2023/12/16 13:35:18;;;;;;;;;;;2.40;84.80;;;;;;4992127;28;92758;-46
2023/12/16 13:37:44;;;;;;;;;;;2.40;84.60;;;;;;4991358;28;93713;-48
2023/12/16 13:40:10;;;;;;;;;;;2.40;84.80;;;;;;4994765;28;93136;-47
2023/12/16 13:42:35;;;;;;;;;;;2.40;84.70;;;;;;4995018;28;92666;-47
2023/12/16 13:45:01;;;;;;;;;;;2.40;84.80;;;;;;5000087;28;92069;-46
2023/12/16 13:47:27;;;;;;;;;;;2.40;84.70;;;;;;4997806;28;92070;-46
2023/12/16 13:49:52;;;;;;;;;;;2.40;84.70;;;;;;4993188;28;92760;-47
2023/12/16 13:52:18;;;;;;;;;;;2.40;84.70;;;;;;4996415;28;92028;-49
2023/12/16 13:54:43;;;;;;;;;;;2.40;84.80;;;;;;4996537;28;91777;-48
2023/12/16 13:57:09;;;;;;;;;;;2.40;85.00;;;;;;4993663;28;92224;-48
2023/12/16 13:59:35;;;;;;;;;;;2.40;84.80;;;;;;4998793;28;92094;-47
2023/12/16 14:02:01;;;;;;;;;;;2.40;84.80;;;;;;4993566;28;94026;-48
2023/12/16 14:04:27;;;;;;;;;;;2.40;84.80;;;;;;4996643;28;91917;-47
2023/12/16 14:06:52;;;;;;;;;;;2.40;85.00;;;;;;4993089;28;92010;-46
2023/12/16 14:09:18;;;;;;;;;;;2.40;84.90;;;;;;5000776;28;92264;-46
2023/12/16 14:11:44;;;;;;;;;;;2.40;85.00;;;;;;4993462;28;92857;-46
2023/12/16 14:14:10;;;;;;;;;;;2.40;84.80;;;;;;4994438;28;92494;-46
2023/12/16 14:16:35;;;;;;;;;;;2.40;84.80;;;;;;4992737;28;92234;-46
2023/12/16 14:19:01;;;;;;;;;;;2.40;85.00;;;;;;4990409;28;91286;-47
2023/12/16 14:21:26;;;;;;;;;;;2.40;85.00;;;;;;4994481;28;93662;-48
2023/12/16 14:23:52;;;;;;;;;;;2.40;84.80;;;;;;5000171;28;92061;-46
2023/12/16 14:26:18;;;;;;;;;;;2.40;84.80;;;;;;4989582;28;94543;-48